createdAt,value
2018-09-12T00:01:08.182Z,99.90
2018-09-12T00:03:38.955Z,99.90
2018-09-12T00:06:08.914Z,99.90
2018-09-12T00:08:38.684Z,99.90
2018-09-12T00:11:08.392Z,99.90
2018-09-12T00:13:38.658Z,99.90
2018-09-12T00:16:08.997Z,99.90
2018-09-12T00:18:39.411Z,99.90
2018-09-12T00:21:09.276Z,99.90
2018-09-12T00:23:39.796Z,99.90
2018-09-12T00:26:10.017Z,99.90
2018-09-12T00:28:39.722Z,99.90
2018-09-12T00:31:10.098Z,99.90
2018-09-12T00:33:39.124Z,99.90
2018-09-12T00:36:08.891Z,99.90
2018-09-12T00:38:38.523Z,99.90
2018-09-12T00:41:07.901Z,99.90
2018-09-12T00:43:38.113Z,99.90
2018-09-12T00:46:08.147Z,99.90
2018-09-12T00:48:38.304Z,99.90
2018-09-12T00:51:08.891Z,99.90
2018-09-12T00:53:37.957Z,99.90
2018-09-12T00:56:07.541Z,99.90
2018-09-12T00:58:36.967Z,99.90
2018-09-12T01:01:07.148Z,99.90
2018-09-12T01:03:37.285Z,99.90
2018-09-12T01:06:07.617Z,99.90
2018-09-12T01:08:37.726Z,99.90
2018-09-12T01:11:08.527Z,99.90
2018-09-12T01:13:38.977Z,99.90
2018-09-12T01:16:08.883Z,99.90
2018-09-12T01:18:38.475Z,99.90
2018-09-12T01:21:08.341Z,99.90
2018-09-12T01:23:38.041Z,99.90
2018-09-12T01:26:07.723Z,99.90
2018-09-12T01:28:37.838Z,99.90
2018-09-12T01:31:07.953Z,99.90
2018-09-12T01:33:37.896Z,99.90
2018-09-12T01:36:07.624Z,99.90
2018-09-12T01:38:37.604Z,99.90
2018-09-12T01:41:08.608Z,99.90
2018-09-12T01:43:38.357Z,99.90
2018-09-12T01:46:08.320Z,99.90
2018-09-12T01:48:38.111Z,99.90
2018-09-12T01:51:07.563Z,99.90
2018-09-12T01:53:37.420Z,99.90
2018-09-12T01:56:07.360Z,99.90
2018-09-12T01:58:38.309Z,99.90
2018-09-12T02:01:08.229Z,99.90
2018-09-12T02:03:37.975Z,99.90
2018-09-12T02:06:09.262Z,99.90
2018-09-12T02:08:39.758Z,99.90
2018-09-12T02:11:09.789Z,99.90
2018-09-12T02:13:40.186Z,99.90
2018-09-12T02:16:10.916Z,99.90
2018-09-12T02:18:41.630Z,99.90
2018-09-12T02:21:12.545Z,99.90
2018-09-12T02:23:43.150Z,99.90
2018-09-12T02:26:12.719Z,99.90
2018-09-12T02:28:44.226Z,99.90
2018-09-12T02:31:13.942Z,99.90
2018-09-12T02:33:44.370Z,99.90
2018-09-12T02:36:20.100Z,99.90
2018-09-12T02:38:50.551Z,99.90
2018-09-12T02:41:20.663Z,99.90
2018-09-12T02:43:50.561Z,99.90
2018-09-12T02:46:21.313Z,99.90
2018-09-12T02:48:52.112Z,99.90
2018-09-12T02:51:24.204Z,99.90
2018-09-12T02:53:54.882Z,99.90
2018-09-12T02:56:24.738Z,99.90
2018-09-12T02:58:54.692Z,99.90
2018-09-12T03:01:24.102Z,99.90
2018-09-12T03:03:54.151Z,99.90
2018-09-12T03:06:24.173Z,99.90
2018-09-12T03:08:54.310Z,99.90
2018-09-12T03:11:25.262Z,99.90
2018-09-12T03:13:55.836Z,99.90
2018-09-12T03:16:26.169Z,99.90
2018-09-12T03:18:55.791Z,99.90
2018-09-12T03:21:26.225Z,99.90
2018-09-12T03:23:55.629Z,99.90
2018-09-12T03:26:24.749Z,99.90
2018-09-12T03:28:54.516Z,99.90
2018-09-12T03:31:23.945Z,99.90
2018-09-12T03:33:53.823Z,99.90
2018-09-12T03:36:25.096Z,99.90
2018-09-12T03:38:54.555Z,99.90
2018-09-12T03:41:24.560Z,99.90
2018-09-12T03:43:54.534Z,99.90
2018-09-12T03:46:23.796Z,99.90
2018-09-12T03:48:55.455Z,99.90
2018-09-12T03:51:25.658Z,99.90
2018-09-12T03:53:55.833Z,99.90
2018-09-12T03:56:26.256Z,99.90
2018-09-12T03:58:55.725Z,99.90
2018-09-12T04:01:25.806Z,99.90
2018-09-12T04:03:55.692Z,99.90
2018-09-12T04:06:25.890Z,99.90
2018-09-12T04:08:55.556Z,99.90
2018-09-12T04:11:25.600Z,99.90
2018-09-12T04:13:56.563Z,99.90
2018-09-12T04:16:26.755Z,99.90
2018-09-12T04:18:57.007Z,99.90
2018-09-12T04:21:27.489Z,99.90
2018-09-12T04:23:58.575Z,99.90
2018-09-12T04:26:27.749Z,99.90
2018-09-12T04:28:57.343Z,99.90
2018-09-12T04:31:27.401Z,99.90
2018-09-12T04:33:58.477Z,99.90
2018-09-12T04:36:29.101Z,99.90
2018-09-12T04:38:58.853Z,99.90
2018-09-12T04:41:28.566Z,99.90
2018-09-12T04:43:59.142Z,99.90
2018-09-12T04:46:29.541Z,99.90
2018-09-12T04:48:59.428Z,99.90
2018-09-12T04:51:28.863Z,99.90
2018-09-12T04:53:58.660Z,99.90
2018-09-12T04:56:28.489Z,99.90
2018-09-12T04:58:58.159Z,99.90
2018-09-12T05:01:28.279Z,99.90
2018-09-12T05:03:57.325Z,99.90
2018-09-12T05:06:27.740Z,99.90
2018-09-12T05:08:58.178Z,99.90
2018-09-12T05:11:27.238Z,99.90
2018-09-12T05:13:56.628Z,99.90
2018-09-12T05:16:28.023Z,99.90
2018-09-12T05:18:58.184Z,99.90
2018-09-12T05:21:27.349Z,99.90
2018-09-12T05:23:57.692Z,99.90
2018-09-12T05:26:27.486Z,99.90
2018-09-12T05:28:57.139Z,99.90
2018-09-12T05:31:26.993Z,99.90
2018-09-12T05:33:55.978Z,99.90
2018-09-12T05:36:25.812Z,99.90
2018-09-12T05:38:56.058Z,99.90
2018-09-12T05:41:26.151Z,99.90
2018-09-12T05:43:55.286Z,99.90
2018-09-12T05:46:25.368Z,99.90
2018-09-12T05:48:56.142Z,99.90
2018-09-12T05:51:26.479Z,99.90
2018-09-12T05:53:56.303Z,99.90
2018-09-12T05:56:26.677Z,99.90
2018-09-12T05:58:57.190Z,99.90
2018-09-12T06:01:27.540Z,99.90
2018-09-12T06:03:56.554Z,99.90
2018-09-12T06:06:25.782Z,99.90
2018-09-12T06:08:56.265Z,99.90
2018-09-12T06:11:26.545Z,99.90
2018-09-12T06:13:57.152Z,99.90
2018-09-12T06:16:26.768Z,99.90
2018-09-12T06:18:55.851Z,99.90
2018-09-12T06:21:25.641Z,99.90
2018-09-12T06:23:56.319Z,99.90
2018-09-12T06:26:26.043Z,99.90
2018-09-12T06:28:56.448Z,99.90
2018-09-12T06:31:27.003Z,99.90
2018-09-12T06:33:57.164Z,99.90
2018-09-12T06:36:27.005Z,99.90
2018-09-12T06:38:57.624Z,99.90
2018-09-12T06:41:27.259Z,99.90
2018-09-12T06:43:57.119Z,99.90
2018-09-12T06:46:27.127Z,99.90
2018-09-12T06:48:58.487Z,99.90
2018-09-12T06:51:28.142Z,99.90
2018-09-12T06:53:58.930Z,99.90
2018-09-12T06:56:28.879Z,99.90
2018-09-12T06:58:58.031Z,99.90
2018-09-12T07:01:27.461Z,99.90
2018-09-12T07:03:57.834Z,99.90
2018-09-12T07:06:27.827Z,99.90
2018-09-12T07:08:57.963Z,99.90
2018-09-12T07:11:26.947Z,99.90
2018-09-12T07:13:57.364Z,99.90
2018-09-12T07:16:28.326Z,99.90
2018-09-12T07:18:58.388Z,99.90
2018-09-12T07:21:29.537Z,99.90
2018-09-12T07:24:00.195Z,99.90
2018-09-12T07:26:29.223Z,99.90
2018-09-12T07:28:59.429Z,99.90
2018-09-12T07:31:30.018Z,99.90
2018-09-12T07:33:59.360Z,99.90
2018-09-12T07:36:29.979Z,99.90
2018-09-12T07:39:00.206Z,99.90
2018-09-12T07:41:29.470Z,99.90
2018-09-12T07:43:58.898Z,99.90
2018-09-12T07:46:28.608Z,99.90
2018-09-12T07:48:58.790Z,99.90
2018-09-12T07:51:29.595Z,99.90
2018-09-12T07:53:59.878Z,99.90
2018-09-12T07:56:29.653Z,99.90
2018-09-12T07:58:59.722Z,99.90
2018-09-12T08:01:30.194Z,99.90
2018-09-12T08:04:00.334Z,99.90
2018-09-12T08:06:29.766Z,99.90
2018-09-12T08:08:59.471Z,99.90
2018-09-12T08:11:29.594Z,99.90
2018-09-12T08:14:00.303Z,99.90
2018-09-12T08:16:30.034Z,99.90
2018-09-12T08:19:00.826Z,99.90
2018-09-12T08:21:29.901Z,99.90
2018-09-12T08:24:00.220Z,99.90
2018-09-12T08:26:30.590Z,99.90
2018-09-12T08:28:59.602Z,99.90
2018-09-12T08:31:28.930Z,99.90
2018-09-12T08:33:59.758Z,99.90
2018-09-12T08:36:30.630Z,99.90
2018-09-12T08:39:00.897Z,99.90
2018-09-12T08:41:31.221Z,99.90
2018-09-12T08:44:00.909Z,99.90
2018-09-12T08:46:30.090Z,99.90
2018-09-12T08:48:59.184Z,99.90
2018-09-12T08:51:29.768Z,99.90
2018-09-12T08:53:59.687Z,99.90
2018-09-12T08:56:29.553Z,99.90
2018-09-12T08:58:59.327Z,99.90
2018-09-12T09:01:28.447Z,99.90
2018-09-12T09:03:58.890Z,99.90
2018-09-12T09:06:27.931Z,99.90
2018-09-12T09:08:58.509Z,99.90
2018-09-12T09:11:28.587Z,99.90
2018-09-12T09:14:00.119Z,99.90
2018-09-12T09:16:30.323Z,99.90
2018-09-12T09:18:59.561Z,99.90
2018-09-12T09:21:30.642Z,99.90
2018-09-12T09:23:59.656Z,99.90
2018-09-12T09:26:30.011Z,99.90
2018-09-12T09:28:59.210Z,99.90
2018-09-12T09:31:28.718Z,99.90
2018-09-12T09:33:59.224Z,99.90
2018-09-12T09:36:28.702Z,99.90
2018-09-12T09:38:59.187Z,99.90
2018-09-12T09:41:29.300Z,99.90
2018-09-12T09:43:59.490Z,99.90
2018-09-12T09:46:29.798Z,99.90
2018-09-12T09:49:00.229Z,99.90
2018-09-12T09:51:29.219Z,99.90
2018-09-12T09:53:58.659Z,99.90
2018-09-12T09:56:29.090Z,99.90
2018-09-12T09:58:58.812Z,99.90
2018-09-12T10:01:33.159Z,99.90
2018-09-12T10:04:08.076Z,99.90
2018-09-12T10:06:43.029Z,99.90
2018-09-12T10:09:33.118Z,99.90
2018-09-12T10:12:03.369Z,99.90
2018-09-12T10:14:33.081Z,99.90
2018-09-12T10:17:02.874Z,99.90
2018-09-12T10:19:31.874Z,99.90
2018-09-12T10:22:01.384Z,99.90
2018-09-12T10:24:30.675Z,99.90
2018-09-12T10:27:00.892Z,99.10
2018-09-12T10:29:31.289Z,98.00
2018-09-12T10:32:00.928Z,98.00
2018-09-12T10:34:30.011Z,97.40
2018-09-12T10:37:00.391Z,96.50
2018-09-12T10:39:30.952Z,96.80
2018-09-12T10:42:00.571Z,95.00
2018-09-12T10:44:31.125Z,94.00
2018-09-12T10:47:00.261Z,94.90
2018-09-12T10:49:30.332Z,92.30
2018-09-12T10:52:00.593Z,92.30
2018-09-12T10:54:30.905Z,94.10
2018-09-12T10:57:01.476Z,92.10
2018-09-12T10:59:31.456Z,92.10
2018-09-12T11:02:01.912Z,92.00
2018-09-12T11:04:31.021Z,91.70
2018-09-12T11:07:01.267Z,90.20
2018-09-12T11:09:31.786Z,86.80
2018-09-12T11:12:02.190Z,86.30
2018-09-12T11:14:32.670Z,83.50
2018-09-12T11:17:01.703Z,82.60
2018-09-12T11:19:31.534Z,81.10
2018-09-12T11:22:01.154Z,78.60
2018-09-12T11:24:31.400Z,79.00
2018-09-12T11:27:00.509Z,78.70
2018-09-12T11:29:30.409Z,76.30
2018-09-12T11:32:00.603Z,77.70
2018-09-12T11:34:30.233Z,75.80
2018-09-12T11:36:59.243Z,72.50
2018-09-12T11:39:28.509Z,72.80
2018-09-12T11:41:58.682Z,72.70
2018-09-12T11:44:29.374Z,72.20
2018-09-12T11:46:58.919Z,69.40
2018-09-12T11:49:29.392Z,67.80
2018-09-12T11:51:59.592Z,67.40
2018-09-12T11:54:29.567Z,66.20
2018-09-12T11:56:59.271Z,65.20
2018-09-12T11:59:30.556Z,63.70
2018-09-12T12:02:01.199Z,65.20
2018-09-12T12:04:31.329Z,62.50
2018-09-12T12:07:01.444Z,60.70
2018-09-12T12:09:32.060Z,59.60
2018-09-12T12:12:01.718Z,59.80
2018-09-12T12:14:31.291Z,59.20
2018-09-12T12:17:01.273Z,60.10
2018-09-12T12:19:32.928Z,58.40
2018-09-12T12:22:02.443Z,59.40
2018-09-12T12:24:32.909Z,60.40
2018-09-12T12:27:02.219Z,61.00
2018-09-12T12:29:31.998Z,60.30
2018-09-12T12:32:01.897Z,58.80
2018-09-12T12:34:32.125Z,59.40
2018-09-12T12:37:02.478Z,58.30
2018-09-12T12:39:31.941Z,56.20
2018-09-12T12:42:01.758Z,54.10
2018-09-12T12:44:32.148Z,54.60
2018-09-12T12:47:02.129Z,54.10
2018-09-12T12:49:31.476Z,53.80
2018-09-12T12:52:01.690Z,52.20
2018-09-12T12:54:31.654Z,51.40
2018-09-12T12:57:01.915Z,52.30
2018-09-12T12:59:31.414Z,50.30
2018-09-12T13:02:01.176Z,52.00
2018-09-12T13:04:31.772Z,52.70
2018-09-12T13:07:01.224Z,51.30
2018-09-12T13:09:31.877Z,50.20
2018-09-12T13:12:01.897Z,51.00
2018-09-12T13:14:31.992Z,51.50
2018-09-12T13:17:02.357Z,50.50
2018-09-12T13:19:32.071Z,49.90
2018-09-12T13:22:02.081Z,48.70
2018-09-12T13:24:31.338Z,48.80
2018-09-12T13:27:01.241Z,48.20
2018-09-12T13:29:30.974Z,47.00
2018-09-12T13:32:01.735Z,48.80
2018-09-12T13:34:32.516Z,48.60
2018-09-12T13:37:02.802Z,49.10
2018-09-12T13:39:32.518Z,49.00
2018-09-12T13:42:02.070Z,47.00
2018-09-12T13:44:31.578Z,48.00
2018-09-12T13:47:00.619Z,46.90
2018-09-12T13:49:29.709Z,46.90
2018-09-12T13:51:58.803Z,47.40
2018-09-12T13:54:27.926Z,47.20
2018-09-12T13:56:57.008Z,46.00
2018-09-12T13:59:26.089Z,46.50
2018-09-12T14:01:55.481Z,45.70
2018-09-12T14:04:25.549Z,46.60
2018-09-12T14:06:55.374Z,45.90
2018-09-12T14:09:24.487Z,44.50
2018-09-12T14:11:53.604Z,45.20
2018-09-12T14:14:22.704Z,47.40
2018-09-12T14:16:51.897Z,45.30
2018-09-12T14:19:21.007Z,45.30
2018-09-12T14:21:50.274Z,45.00
2018-09-12T14:24:19.408Z,44.20
2018-09-12T14:26:48.512Z,43.80
2018-09-12T14:29:17.709Z,44.00
2018-09-12T14:31:46.940Z,44.60
2018-09-12T14:34:16.078Z,44.50
2018-09-12T14:36:45.210Z,43.80
2018-09-12T14:39:14.388Z,43.50
2018-09-12T14:41:43.380Z,43.10
2018-09-12T14:44:12.511Z,44.00
2018-09-12T14:46:41.618Z,45.20
2018-09-12T14:49:10.740Z,44.50
2018-09-12T14:51:39.868Z,44.20
2018-09-12T14:54:08.938Z,44.00
2018-09-12T14:56:38.680Z,43.90
2018-09-12T14:59:07.769Z,43.00
2018-09-12T15:01:36.842Z,43.10
2018-09-12T15:04:06.260Z,43.00
2018-09-12T15:06:35.370Z,43.30
2018-09-12T15:09:06.212Z,43.60
2018-09-12T15:11:35.838Z,43.90
2018-09-12T15:14:04.946Z,43.00
2018-09-12T15:16:34.068Z,42.50
2018-09-12T15:19:03.877Z,44.50
2018-09-12T15:21:33.081Z,42.80
2018-09-12T15:24:03.209Z,43.90
2018-09-12T15:26:32.451Z,44.30
2018-09-12T15:29:01.560Z,43.30
2018-09-12T15:31:31.631Z,44.40
2018-09-12T15:34:00.771Z,43.00
2018-09-12T15:36:29.901Z,43.60
2018-09-12T15:38:59.059Z,45.40
2018-09-12T15:41:28.222Z,44.40
2018-09-12T15:43:57.247Z,44.80
2018-09-12T15:46:27.291Z,45.60
2018-09-12T15:48:56.386Z,45.80
2018-09-12T15:51:25.557Z,46.70
2018-09-12T15:53:54.685Z,48.90
2018-09-12T15:56:23.945Z,45.60
2018-09-12T15:58:53.055Z,45.00
2018-09-12T16:01:22.133Z,46.00
2018-09-12T16:03:51.351Z,46.30
2018-09-12T16:06:20.519Z,45.90
2018-09-12T16:08:49.785Z,46.70
2018-09-12T16:11:18.909Z,46.40
2018-09-12T16:13:47.997Z,46.30
2018-09-12T16:16:17.664Z,46.50
2018-09-12T16:18:46.823Z,47.40
2018-09-12T16:21:16.278Z,49.20
2018-09-12T16:23:45.408Z,47.70
2018-09-12T16:26:15.270Z,47.40
2018-09-12T16:28:44.364Z,47.60
2018-09-12T16:31:13.681Z,47.50
2018-09-12T16:33:42.834Z,47.90
2018-09-12T16:36:11.948Z,48.70
2018-09-12T16:38:41.140Z,49.00
2018-09-12T16:41:10.244Z,49.20
2018-09-12T16:43:40.270Z,50.30
2018-09-12T16:46:09.372Z,49.40
2018-09-12T16:48:38.438Z,49.10
2018-09-12T16:51:07.592Z,50.20
2018-09-12T16:53:36.710Z,50.70
2018-09-12T16:56:05.829Z,52.60
2018-09-12T16:58:34.890Z,54.30
2018-09-12T17:01:03.988Z,54.20
2018-09-12T17:03:33.128Z,55.80
2018-09-12T17:06:02.692Z,56.60
2018-09-12T17:08:32.366Z,58.20
2018-09-12T17:11:01.414Z,58.70
2018-09-12T17:13:30.509Z,59.20
2018-09-12T17:15:59.629Z,58.90
2018-09-12T17:18:28.701Z,60.10
2018-09-12T17:20:57.774Z,60.50
2018-09-12T17:23:26.892Z,61.30
2018-09-12T17:25:56.020Z,61.60
2018-09-12T17:28:25.486Z,62.60
2018-09-12T17:30:54.556Z,63.20
2018-09-12T17:33:23.862Z,63.50
2018-09-12T17:35:52.936Z,63.90
2018-09-12T17:38:22.021Z,64.50
2018-09-12T17:40:51.052Z,64.50
2018-09-12T17:43:20.123Z,66.20
2018-09-12T17:45:49.199Z,70.40
2018-09-12T17:48:18.315Z,71.70
2018-09-12T17:50:47.471Z,71.50
2018-09-12T17:53:16.618Z,70.60
2018-09-12T17:55:46.242Z,69.80
2018-09-12T17:58:15.321Z,69.80
2018-09-12T18:00:44.445Z,70.00
2018-09-12T18:03:14.199Z,70.60
2018-09-12T18:05:43.965Z,71.60
2018-09-12T18:08:13.039Z,71.60
2018-09-12T18:10:42.457Z,72.40
2018-09-12T18:13:11.569Z,73.10
2018-09-12T18:15:40.668Z,72.40
2018-09-12T18:18:10.610Z,74.20
2018-09-12T18:20:39.701Z,73.80
2018-09-12T18:23:08.778Z,73.70
2018-09-12T18:25:38.449Z,75.50
2018-09-12T18:28:07.561Z,76.20
2018-09-12T18:30:36.923Z,76.70
2018-09-12T18:33:06.031Z,77.10
2018-09-12T18:35:35.318Z,78.30
2018-09-12T18:38:06.673Z,77.70
2018-09-12T18:40:35.830Z,78.80
2018-09-12T18:43:04.946Z,76.90
2018-09-12T18:45:34.070Z,79.60
2018-09-12T18:48:03.207Z,79.60
2018-09-12T18:50:32.474Z,81.90
2018-09-12T18:53:02.449Z,83.10
2018-09-12T18:55:31.560Z,83.00
2018-09-12T18:58:01.227Z,85.50
2018-09-12T19:00:30.421Z,89.20
2018-09-12T19:03:00.245Z,90.00
2018-09-12T19:05:29.561Z,90.70
2018-09-12T19:07:58.883Z,91.70
2018-09-12T19:10:28.015Z,94.90
2018-09-12T19:12:57.406Z,96.60
2018-09-12T19:15:26.539Z,96.60
2018-09-12T19:17:55.604Z,97.50
2018-09-12T19:20:24.861Z,97.80
2018-09-12T19:22:54.070Z,98.70
2018-09-12T19:25:23.264Z,99.30
2018-09-12T19:27:52.388Z,99.90
2018-09-12T19:30:21.516Z,99.90
2018-09-12T19:32:50.698Z,99.90
2018-09-12T19:35:20.808Z,99.10
2018-09-12T19:37:49.924Z,99.20
2018-09-12T19:40:19.065Z,99.90
2018-09-12T19:42:48.214Z,99.90
2018-09-12T19:45:17.322Z,99.90
2018-09-12T19:47:46.423Z,99.90
2018-09-12T19:50:15.545Z,99.90
2018-09-12T19:52:44.693Z,99.90
2018-09-12T19:55:13.822Z,99.90
2018-09-12T19:57:42.982Z,99.90
2018-09-12T20:00:15.769Z,99.90
2018-09-12T20:02:45.226Z,99.90
2018-09-12T20:05:14.358Z,99.90
2018-09-12T20:07:43.492Z,99.90
2018-09-12T20:10:12.621Z,99.90
2018-09-12T20:12:41.720Z,99.90
2018-09-12T20:15:10.669Z,99.90
2018-09-12T20:17:39.746Z,99.90
2018-09-12T20:20:08.843Z,99.90
2018-09-12T20:22:37.925Z,99.90
2018-09-12T20:25:07.129Z,99.90
2018-09-12T20:27:36.231Z,99.90
2018-09-12T20:30:05.487Z,99.90
2018-09-12T20:32:34.641Z,99.90
2018-09-12T20:35:03.789Z,99.90
2018-09-12T20:37:32.943Z,99.90
2018-09-12T20:40:02.044Z,99.90
2018-09-12T20:42:31.142Z,99.90
2018-09-12T20:45:00.235Z,99.90
2018-09-12T20:47:29.348Z,99.90
2018-09-12T20:49:58.451Z,99.90
2018-09-12T20:52:27.524Z,99.90
2018-09-12T20:54:56.630Z,99.90
2018-09-12T20:57:25.766Z,99.90
2018-09-12T20:59:54.855Z,99.90
2018-09-12T21:02:23.957Z,99.90
2018-09-12T21:04:53.041Z,99.90
2018-09-12T21:07:22.777Z,99.90
2018-09-12T21:09:51.901Z,99.90
2018-09-12T21:12:20.983Z,99.90
2018-09-12T21:14:50.338Z,99.90
2018-09-12T21:17:19.616Z,99.90
2018-09-12T21:19:48.690Z,99.90
2018-09-12T21:22:17.853Z,99.90
2018-09-12T21:24:46.945Z,99.90
2018-09-12T21:27:16.043Z,99.90
2018-09-12T21:29:45.162Z,99.90
2018-09-12T21:32:14.290Z,99.90
2018-09-12T21:34:43.394Z,99.90
2018-09-12T21:37:12.542Z,99.90
2018-09-12T21:39:41.630Z,99.90
2018-09-12T21:42:10.702Z,99.90
2018-09-12T21:44:39.784Z,99.90
2018-09-12T21:47:08.862Z,99.90
2018-09-12T21:49:38.222Z,99.90
2018-09-12T21:52:07.278Z,99.90
2018-09-12T21:54:36.408Z,99.90
2018-09-12T21:57:06.165Z,99.90
2018-09-12T21:59:35.285Z,99.90
2018-09-12T22:02:04.367Z,99.90
2018-09-12T22:04:33.463Z,99.90
2018-09-12T22:07:02.629Z,99.90
2018-09-12T22:09:31.696Z,99.90
2018-09-12T22:12:00.811Z,99.90
2018-09-12T22:14:29.946Z,99.90
2018-09-12T22:16:59.056Z,99.90
2018-09-12T22:19:28.913Z,99.90
2018-09-12T22:21:59.369Z,99.90
2018-09-12T22:24:28.451Z,99.90
2018-09-12T22:26:57.569Z,99.90
2018-09-12T22:29:27.085Z,99.90
2018-09-12T22:31:57.067Z,99.90
2018-09-12T22:34:26.953Z,99.90
2018-09-12T22:36:56.030Z,99.90
2018-09-12T22:39:25.108Z,99.90
2018-09-12T22:41:54.185Z,99.90
2018-09-12T22:44:23.274Z,99.90
2018-09-12T22:46:52.377Z,99.90
2018-09-12T22:49:21.498Z,99.90
2018-09-12T22:51:50.587Z,99.90
2018-09-12T22:54:19.656Z,99.90
2018-09-12T22:56:48.792Z,99.90
2018-09-12T22:59:17.880Z,99.90
2018-09-12T23:01:46.958Z,99.90
2018-09-12T23:04:16.035Z,99.90
2018-09-12T23:06:45.116Z,99.90
2018-09-12T23:09:14.253Z,99.90
2018-09-12T23:11:43.335Z,99.90
2018-09-12T23:14:12.409Z,99.90
2018-09-12T23:16:41.484Z,99.90
2018-09-12T23:19:11.082Z,99.90
2018-09-12T23:21:40.342Z,99.90
2018-09-12T23:24:09.469Z,99.90
2018-09-12T23:26:38.541Z,99.90
2018-09-12T23:29:07.636Z,99.90
2018-09-12T23:31:36.741Z,99.90
2018-09-12T23:34:05.948Z,99.90
2018-09-12T23:36:35.029Z,99.90
2018-09-12T23:39:06.262Z,99.90
2018-09-12T23:41:35.359Z,99.90
2018-09-12T23:44:04.471Z,99.90
2018-09-12T23:46:33.601Z,99.90
2018-09-12T23:49:02.801Z,99.90
2018-09-12T23:51:31.899Z,99.90
2018-09-12T23:54:00.973Z,99.90
2018-09-12T23:56:30.058Z,99.90
2018-09-12T23:58:59.187Z,99.90
